Time;durP1;ratioP1;P1;durP2;ratioP2;P2;SDS_P1;SDS_P2;PMS_P1;PMS_P2;Temp;Humidity;BMP_temperature;BMP_pressure;BME280_temperature;BME280_humidity;BME280_pressure;Samples;Min_cycle;Max_cycle;Signal;HPM_P1;HPM_P2
2021/12/23 00:01:01;;;;;;;2.60;2.40;;;19.40;38.30;;;;;;5070061;28;20225;-60
2021/12/23 00:03:26;;;;;;;2.40;2.30;;;19.40;37.50;;;;;;5069827;28;20705;-61
2021/12/23 00:05:55;;;;;;;2.50;2.30;;;19.40;37.50;;;;;;5070991;28;20713;-66
2021/12/23 00:08:21;;;;;;;2.00;1.90;;;19.40;37.40;;;;;;5071473;28;20283;-61
2021/12/23 00:10:47;;;;;;;2.30;2.20;;;19.40;37.50;;;;;;5071611;28;20443;-61
2021/12/23 00:13:13;;;;;;;1.93;1.83;;;19.40;37.40;;;;;;5070111;28;20500;-61
2021/12/23 00:16:00;;;;;;;2.10;2.00;;;19.40;37.40;;;;;;5070465;28;20225;-62
2021/12/23 00:23:57;;;;;;;2.20;2.10;;;19.40;37.50;;;;;;5066458;28;21088;-62
2021/12/23 00:26:24;;;;;;;2.30;2.20;;;19.40;37.50;;;;;;5069870;28;20786;-62
2021/12/23 00:28:49;;;;;;;2.10;2.00;;;19.40;37.50;;;;;;5070054;28;20449;-63
2021/12/23 00:31:16;;;;;;;2.13;2.03;;;19.40;37.50;;;;;;5071681;28;20447;-62
2021/12/23 00:33:42;;;;;;;2.20;2.10;;;19.40;37.50;;;;;;5070764;28;20218;-63
2021/12/23 00:36:10;;;;;;;1.90;1.80;;;19.40;37.50;;;;;;5068021;28;20451;-60
2021/12/23 00:38:42;;;;;;;2.40;2.20;;;19.40;37.60;;;;;;5070747;28;20534;-61
2021/12/23 00:41:08;;;;;;;2.17;2.07;;;19.40;37.60;;;;;;5068737;28;20450;-63
2021/12/23 00:43:35;;;;;;;2.33;2.20;;;19.40;37.50;;;;;;5069459;28;20478;-61
2021/12/23 00:46:03;;;;;;;2.10;2.00;;;19.40;37.50;;;;;;5070072;28;20446;-61
2021/12/23 00:48:29;;;;;;;2.40;2.30;;;19.40;37.60;;;;;;5068776;28;20455;-62
2021/12/23 00:50:55;;;;;;;2.07;1.97;;;19.40;37.60;;;;;;5066262;28;20891;-60
2021/12/23 00:53:23;;;;;;;2.00;1.90;;;19.40;37.60;;;;;;5068341;28;20288;-60
2021/12/23 00:55:52;;;;;;;2.20;2.10;;;19.40;37.60;;;;;;5068733;28;20248;-61
2021/12/23 00:58:19;;;;;;;3.37;2.33;;;19.40;37.60;;;;;;5069432;28;20440;-64
2021/12/23 01:00:45;;;;;;;2.03;1.93;;;19.40;38.30;;;;;;5068819;28;21033;-60
2021/12/23 01:03:11;;;;;;;2.60;2.40;;;19.40;37.60;;;;;;5070933;28;20435;-60
2021/12/23 01:05:37;;;;;;;2.10;1.90;;;19.40;37.60;;;;;;5067783;28;20455;-60
2021/12/23 01:08:03;;;;;;;2.70;2.50;;;19.40;37.50;;;;;;5067983;28;20538;-62
2021/12/23 01:10:30;;;;;;;2.50;2.40;;;19.40;37.50;;;;;;5070766;28;20791;-62
2021/12/23 01:12:59;;;;;;;1.90;1.80;;;19.40;38.30;;;;;;5068345;28;20453;-60
2021/12/23 01:15:49;;;;;;;2.20;2.10;;;19.40;38.30;;;;;;5066621;28;20535;-60
2021/12/23 01:18:18;;;;;;;1.90;1.80;;;19.40;37.50;;;;;;5070024;28;20812;-61
2021/12/23 01:21:03;;;;;;;1.97;1.87;;;19.40;37.50;;;;;;5069077;28;20451;-62
2021/12/23 01:23:31;;;;;;;2.10;2.00;;;19.40;37.40;;;;;;5068300;28;20418;-62
2021/12/23 01:25:57;;;;;;;2.53;2.43;;;19.40;37.40;;;;;;5067750;28;20955;-60
2021/12/23 01:28:25;;;;;;;2.00;1.90;;;19.40;37.40;;;;;;5064877;28;20477;-61
2021/12/23 01:30:51;;;;;;;2.17;2.07;;;19.40;38.20;;;;;;5069691;28;20218;-61
2021/12/23 01:33:17;;;;;;;2.13;2.03;;;19.40;37.40;;;;;;5068428;28;20447;-62
2021/12/23 01:35:49;;;;;;;2.40;2.30;;;19.40;37.40;;;;;;5069022;28;20800;-62
2021/12/23 01:38:16;;;;;;;2.40;2.30;;;19.40;37.40;;;;;;5069643;28;20213;-61
2021/12/23 01:40:44;;;;;;;2.27;2.17;;;19.40;37.30;;;;;;5068069;28;20957;-61
2021/12/23 01:43:10;;;;;;;2.40;2.30;;;19.40;37.30;;;;;;5068554;28;21010;-63
2021/12/23 01:45:46;;;;;;;2.20;2.10;;;19.40;37.30;;;;;;5069587;28;20526;-64
2021/12/23 01:48:13;;;;;;;2.20;2.03;;;19.40;37.30;;;;;;5069286;28;20304;-63
2021/12/23 01:50:39;;;;;;;1.90;1.80;;;19.40;37.40;;;;;;5069801;28;20856;-63
2021/12/23 01:53:06;;;;;;;2.00;1.90;;;19.40;37.30;;;;;;5069782;28;20443;-61
2021/12/23 01:55:33;;;;;;;2.90;2.70;;;19.40;37.30;;;;;;5067765;28;20612;-60
2021/12/23 01:57:58;;;;;;;2.23;2.13;;;19.40;37.30;;;;;;5065869;28;20447;-61
2021/12/23 02:00:30;;;;;;;2.43;2.30;;;19.40;37.20;;;;;;5069052;28;20461;-62
2021/12/23 02:02:57;;;;;;;2.37;2.17;;;19.40;37.30;;;;;;5065837;28;20592;-61
2021/12/23 02:05:23;;;;;;;2.43;2.33;;;19.40;37.20;;;;;;5068283;28;20454;-61
2021/12/23 02:07:50;;;;;;;2.33;2.23;;;19.40;37.20;;;;;;5066111;28;20538;-62
2021/12/23 02:10:15;;;;;;;2.13;2.03;;;19.40;37.20;;;;;;5067986;28;20449;-61
2021/12/23 02:12:47;;;;;;;2.00;1.90;;;19.40;37.20;;;;;;5069936;28;20435;-62
2021/12/23 02:15:14;;;;;;;2.50;2.37;;;19.40;37.10;;;;;;5066734;28;20237;-66
2021/12/23 02:17:41;;;;;;;2.17;2.07;;;19.40;37.10;;;;;;5066972;28;20447;-62
2021/12/23 02:20:16;;;;;;;2.27;2.17;;;19.40;37.00;;;;;;5067745;28;20489;-64
2021/12/23 02:22:42;;;;;;;2.63;2.50;;;19.40;37.00;;;;;;5064265;28;20875;-60
2021/12/23 02:25:10;;;;;;;2.40;2.20;;;19.40;37.00;;;;;;5067976;28;20844;-60
2021/12/23 02:27:37;;;;;;;1.87;1.77;;;19.40;37.00;;;;;;5067445;28;20442;-61
2021/12/23 02:30:05;;;;;;;2.20;2.10;;;19.40;37.00;;;;;;5068416;28;20449;-60
2021/12/23 02:32:31;;;;;;;3.50;2.23;;;19.40;37.00;;;;;;5069285;28;20429;-61
2021/12/23 02:34:56;;;;;;;2.30;2.20;;;19.40;36.90;;;;;;5067484;28;20454;-61
2021/12/23 02:37:22;;;;;;;2.67;2.47;;;19.40;36.80;;;;;;5068776;28;20224;-63
2021/12/23 02:39:47;;;;;;;2.40;2.20;;;19.40;36.80;;;;;;5065082;28;20296;-62
2021/12/23 02:42:13;;;;;;;2.27;2.13;;;19.30;36.80;;;;;;5067018;28;20214;-63
2021/12/23 02:44:39;;;;;;;2.40;2.20;;;19.30;36.70;;;;;;5069569;28;20252;-61
2021/12/23 02:47:05;;;;;;;2.77;2.63;;;19.30;36.70;;;;;;5067416;28;20222;-60
2021/12/23 02:49:31;;;;;;;2.10;2.00;;;19.30;36.70;;;;;;5065641;28;20682;-63
2021/12/23 02:51:57;;;;;;;2.27;2.17;;;19.30;36.70;;;;;;5063462;28;20462;-61
2021/12/23 02:54:23;;;;;;;2.70;2.53;;;19.30;36.60;;;;;;5066645;28;20417;-60
2021/12/23 02:56:48;;;;;;;2.80;2.60;;;19.30;36.60;;;;;;5069188;28;20214;-66
2021/12/23 02:59:14;;;;;;;2.20;2.10;;;19.30;36.60;;;;;;5068839;28;20209;-62
2021/12/23 03:01:39;;;;;;;2.23;2.13;;;19.30;36.60;;;;;;5068198;28;20234;-63
2021/12/23 03:04:05;;;;;;;2.20;2.10;;;19.30;36.50;;;;;;5065723;28;20279;-60
2021/12/23 03:06:31;;;;;;;2.20;2.10;;;19.30;36.60;;;;;;5066634;28;20716;-61
2021/12/23 03:08:59;;;;;;;2.20;2.00;;;19.30;36.50;;;;;;5068466;28;20354;-60
2021/12/23 03:11:27;;;;;;;2.67;2.57;;;19.30;36.60;;;;;;5067738;28;20218;-61
2021/12/23 03:13:53;;;;;;;2.57;2.47;;;19.30;36.60;;;;;;5067780;28;20443;-63
2021/12/23 03:16:22;;;;;;;2.17;2.07;;;19.30;36.50;;;;;;5065206;28;20418;-60
2021/12/23 03:18:47;;;;;;;2.20;2.10;;;19.30;36.50;;;;;;5066181;28;20438;-61
2021/12/23 03:21:13;;;;;;;2.00;1.90;;;19.30;36.60;;;;;;5054833;28;20454;-61
2021/12/23 03:23:39;;;;;;;2.40;2.30;;;19.30;36.60;;;;;;5070176;28;20756;-61
2021/12/23 03:26:05;;;;;;;2.93;2.80;;;19.30;36.60;;;;;;5070441;28;20678;-61
2021/12/23 03:28:31;;;;;;;2.10;2.00;;;19.30;36.60;;;;;;5070026;28;20229;-61
2021/12/23 03:30:58;;;;;;;2.87;2.67;;;19.30;36.60;;;;;;5069632;28;20451;-61
2021/12/23 03:33:24;;;;;;;2.27;2.17;;;19.30;36.60;;;;;;5070177;28;20220;-62
2021/12/23 03:35:50;;;;;;;2.50;2.30;;;19.30;36.60;;;;;;5069256;28;20548;-64
2021/12/23 03:38:17;;;;;;;2.23;2.13;;;19.30;36.60;;;;;;5069443;28;20429;-61
2021/12/23 03:40:46;;;;;;;2.20;2.10;;;19.30;36.70;;;;;;5072228;28;20593;-62
2021/12/23 03:43:12;;;;;;;2.80;2.60;;;19.30;36.60;;;;;;5069677;28;20443;-61
2021/12/23 03:45:38;;;;;;;2.50;2.30;;;19.30;36.60;;;;;;5069478;28;20421;-60
2021/12/23 03:48:05;;;;;;;2.53;2.43;;;19.30;36.60;;;;;;5069774;28;20523;-61
2021/12/23 03:50:30;;;;;;;2.50;2.40;;;19.30;36.60;;;;;;5070526;28;20454;-61
2021/12/23 03:52:56;;;;;;;2.17;2.07;;;19.30;36.60;;;;;;5069835;28;20541;-61
2021/12/23 03:55:22;;;;;;;2.50;2.40;;;19.30;36.60;;;;;;5070962;28;20267;-62
2021/12/23 03:57:48;;;;;;;2.37;2.27;;;19.30;36.60;;;;;;5071723;28;20421;-60
2021/12/23 04:00:18;;;;;;;2.40;2.30;;;19.30;36.60;;;;;;5072226;28;20234;-63
2021/12/23 04:02:45;;;;;;;2.43;2.27;;;19.30;36.60;;;;;;5069913;28;20417;-60
2021/12/23 04:05:11;;;;;;;2.17;2.07;;;19.30;36.60;;;;;;5071948;28;20466;-61
2021/12/23 04:07:40;;;;;;;2.10;1.97;;;19.30;36.60;;;;;;5070972;28;20459;-60
2021/12/23 04:10:07;;;;;;;2.30;2.20;;;19.30;36.60;;;;;;5069959;28;20429;-60
2021/12/23 04:12:33;;;;;;;2.30;2.20;;;19.30;36.50;;;;;;5070866;28;20958;-60
2021/12/23 04:14:59;;;;;;;2.20;2.10;;;19.30;36.50;;;;;;5070694;28;20485;-60
2021/12/23 04:17:24;;;;;;;2.23;2.13;;;19.30;36.50;;;;;;5070114;28;20229;-61
2021/12/23 04:19:50;;;;;;;2.97;2.70;;;19.20;36.30;;;;;;5069871;28;20265;-66
2021/12/23 04:22:16;;;;;;;2.73;2.53;;;19.30;36.50;;;;;;5068987;28;20700;-60
2021/12/23 04:24:42;;;;;;;2.60;2.03;;;19.20;36.30;;;;;;5070384;28;20563;-60
2021/12/23 04:27:08;;;;;;;2.43;2.10;;;19.20;36.30;;;;;;5070073;28;20213;-60
2021/12/23 04:29:33;;;;;;;2.27;2.17;;;19.20;36.20;;;;;;5070007;28;20225;-60
2021/12/23 04:32:00;;;;;;;2.23;2.13;;;19.20;36.20;;;;;;5067835;28;20223;-60
2021/12/23 04:34:26;;;;;;;2.60;2.40;;;19.20;36.20;;;;;;5070353;28;20233;-60
2021/12/23 04:36:52;;;;;;;2.53;2.43;;;19.20;36.20;;;;;;5071478;28;20433;-60
2021/12/23 04:39:18;;;;;;;2.30;2.20;;;19.20;36.20;;;;;;5069212;28;20442;-63
2021/12/23 04:41:43;;;;;;;2.23;2.13;;;19.20;36.10;;;;;;5071853;28;20578;-60
2021/12/23 04:44:09;;;;;;;2.73;2.50;;;19.20;36.20;;;;;;5071321;28;21810;-61
2021/12/23 04:46:35;;;;;;;2.23;2.13;;;19.20;36.10;;;;;;5067994;28;20670;-61
2021/12/23 04:49:00;;;;;;;2.30;2.20;;;19.20;36.10;;;;;;5070004;28;20665;-65
2021/12/23 04:51:26;;;;;;;2.60;2.50;;;19.20;36.10;;;;;;5069655;28;20214;-60
2021/12/23 04:53:52;;;;;;;2.10;2.00;;;19.20;36.20;;;;;;5070308;28;20245;-61
2021/12/23 04:56:18;;;;;;;2.50;2.30;;;19.20;36.10;;;;;;5069238;28;20224;-60
2021/12/23 04:58:44;;;;;;;2.20;2.10;;;19.20;36.10;;;;;;5068645;28;20221;-61
2021/12/23 05:01:21;;;;;;;2.57;2.47;;;19.20;36.20;;;;;;5069002;28;20444;-62
2021/12/23 05:03:48;;;;;;;2.33;2.23;;;19.20;36.20;;;;;;5066559;28;20500;-60
2021/12/23 05:06:17;;;;;;;2.70;2.50;;;19.20;36.20;;;;;;5069700;28;20487;-61
2021/12/23 05:08:43;;;;;;;2.40;2.30;;;19.20;36.20;;;;;;5066653;28;20814;-63
2021/12/23 05:11:09;;;;;;;2.73;2.60;;;19.20;36.20;;;;;;5068917;28;20500;-63
2021/12/23 05:13:35;;;;;;;2.40;2.30;;;19.20;36.30;;;;;;5066777;28;20919;-61
2021/12/23 05:16:00;;;;;;;2.63;2.20;;;19.20;36.20;;;;;;5067941;28;20531;-62
2021/12/23 05:18:26;;;;;;;2.40;2.30;;;19.20;36.20;;;;;;5070807;28;20651;-61
2021/12/23 05:20:52;;;;;;;2.20;2.10;;;19.20;36.20;;;;;;5068253;28;20743;-63
2021/12/23 05:23:17;;;;;;;2.47;2.37;;;19.20;36.20;;;;;;5069228;28;20210;-66
2021/12/23 05:25:43;;;;;;;2.40;2.30;;;19.20;36.20;;;;;;5070006;28;20218;-61
2021/12/23 05:28:09;;;;;;;2.43;2.33;;;19.20;36.20;;;;;;5067970;28;20224;-62
2021/12/23 05:30:35;;;;;;;2.50;2.40;;;19.20;36.20;;;;;;5069359;28;20226;-63
2021/12/23 05:33:01;;;;;;;2.33;2.23;;;19.20;36.30;;;;;;5068210;28;20417;-61
2021/12/23 05:35:26;;;;;;;2.20;2.10;;;19.30;36.40;;;;;;5066371;28;20210;-60
2021/12/23 05:37:53;;;;;;;2.17;2.07;;;19.30;36.40;;;;;;5069111;28;20214;-60
2021/12/23 05:40:22;;;;;;;2.20;2.10;;;19.30;36.40;;;;;;5067719;28;20245;-60
2021/12/23 05:42:49;;;;;;;2.70;2.50;;;19.30;36.40;;;;;;5067656;28;20459;-61
2021/12/23 05:45:15;;;;;;;2.30;2.20;;;19.30;36.40;;;;;;5068676;28;21024;-60
2021/12/23 05:47:42;;;;;;;2.53;2.33;;;19.30;36.40;;;;;;5068084;28;21018;-60
2021/12/23 05:50:08;;;;;;;2.37;2.17;;;19.30;36.50;;;;;;5067060;28;20449;-62
2021/12/23 05:52:34;;;;;;;2.27;2.17;;;19.30;36.40;;;;;;5068846;28;20422;-62
2021/12/23 05:55:02;;;;;;;2.53;2.43;;;19.30;36.40;;;;;;5068473;28;20453;-62
2021/12/23 05:57:29;;;;;;;2.60;2.50;;;19.30;36.40;;;;;;5069072;28;20500;-62
2021/12/23 05:59:55;;;;;;;2.60;2.40;;;19.40;36.40;;;;;;5066775;28;20860;-60
2021/12/23 06:02:20;;;;;;;2.23;2.13;;;19.40;36.40;;;;;;5068196;28;20473;-62
2021/12/23 06:04:46;;;;;;;2.10;2.00;;;19.40;36.30;;;;;;5069545;28;20267;-63
2021/12/23 06:07:12;;;;;;;2.40;2.30;;;19.40;36.30;;;;;;5067804;28;20599;-61
2021/12/23 06:09:37;;;;;;;2.27;2.17;;;19.50;36.30;;;;;;5065805;28;20228;-61
2021/12/23 06:12:04;;;;;;;2.40;2.30;;;19.50;36.30;;;;;;5067020;28;20225;-61
2021/12/23 06:14:29;;;;;;;2.23;2.13;;;19.50;36.30;;;;;;5068866;28;20253;-61
2021/12/23 06:16:55;;;;;;;2.20;2.10;;;19.50;36.30;;;;;;5066884;28;20486;-62
2021/12/23 06:19:20;;;;;;;2.10;1.93;;;19.50;36.30;;;;;;5068961;28;20253;-61
2021/12/23 06:21:46;;;;;;;2.60;2.37;;;19.50;36.30;;;;;;5068841;28;20236;-60
2021/12/23 06:24:12;;;;;;;2.80;2.60;;;19.50;36.30;;;;;;5068643;28;20217;-63
2021/12/23 06:26:37;;;;;;;2.20;2.10;;;19.50;36.30;;;;;;5067070;28;20214;-61
2021/12/23 06:29:03;;;;;;;2.50;2.40;;;19.50;36.40;;;;;;5065657;28;20217;-60
2021/12/23 06:31:28;;;;;;;2.30;2.20;;;19.50;36.50;;;;;;5067247;28;20228;-61
2021/12/23 06:33:54;;;;;;;2.80;2.70;;;19.50;36.50;;;;;;5067298;28;20220;-63
2021/12/23 06:36:20;;;;;;;3.20;3.00;;;19.40;36.40;;;;;;5068178;28;20222;-62
2021/12/23 06:38:46;;;;;;;3.50;3.27;;;19.50;36.60;;;;;;5067797;28;21020;-61
2021/12/23 06:41:12;;;;;;;3.53;3.33;;;19.40;36.40;;;;;;5064991;28;20226;-61
2021/12/23 06:43:38;;;;;;;3.40;3.20;;;19.40;36.40;;;;;;5066043;28;20248;-60
2021/12/23 06:46:05;;;;;;;3.93;3.73;;;19.40;36.40;;;;;;5068903;28;20539;-65
2021/12/23 06:48:31;;;;;;;3.90;3.67;;;19.40;36.30;;;;;;5054131;28;20509;-67
2021/12/23 06:50:59;;;;;;;4.23;3.83;;;19.40;36.30;;;;;;5066067;28;20539;-62
2021/12/23 06:53:25;;;;;;;3.67;3.47;;;19.40;36.30;;;;;;5068808;28;20474;-61
2021/12/23 06:55:52;;;;;;;3.90;3.70;;;19.40;36.30;;;;;;5065586;28;20455;-64
2021/12/23 06:58:19;;;;;;;4.17;3.97;;;19.40;36.20;;;;;;5070430;28;20218;-65
2021/12/23 07:00:45;;;;;;;4.30;4.10;;;19.40;36.20;;;;;;5069946;28;20507;-61
2021/12/23 07:03:10;;;;;;;4.60;4.40;;;19.40;36.20;;;;;;5068306;28;20420;-62
2021/12/23 07:05:36;;;;;;;4.37;4.17;;;19.40;36.20;;;;;;5070523;28;20433;-66
2021/12/23 07:08:23;;;;;;;5.27;5.07;;;19.40;36.20;;;;;;5067576;28;20348;-61
2021/12/23 07:10:49;;;;;;;5.73;5.33;;;19.40;36.10;;;;;;5066531;28;20591;-63
2021/12/23 07:13:14;;;;;;;5.97;5.60;;;19.40;36.00;;;;;;5067132;28;20438;-62
2021/12/23 07:15:40;;;;;;;5.13;4.80;;;19.40;36.00;;;;;;5071396;28;20221;-60
2021/12/23 07:18:06;;;;;;;5.50;5.10;;;19.40;36.00;;;;;;5068984;28;20218;-60
2021/12/23 07:20:31;;;;;;;5.80;5.50;;;19.40;36.10;;;;;;5070481;28;20333;-61
2021/12/23 07:22:58;;;;;;;6.07;5.77;;;19.40;36.10;;;;;;5069012;28;20218;-62
2021/12/23 07:25:24;;;;;;;5.70;5.30;;;19.40;36.10;;;;;;5069315;28;20221;-60
2021/12/23 07:27:49;;;;;;;6.13;5.80;;;19.40;36.10;;;;;;5071574;28;20446;-62
2021/12/23 07:30:18;;;;;;;6.27;5.87;;;19.30;36.00;;;;;;5071046;28;20709;-61
2021/12/23 07:32:45;;;;;;;6.30;5.83;;;19.30;36.00;;;;;;5069594;28;20225;-60
2021/12/23 07:35:11;;;;;;;6.70;6.37;;;19.30;36.10;;;;;;5070935;28;20488;-60
2021/12/23 07:37:37;;;;;;;5.97;5.57;;;19.30;36.00;;;;;;5071291;28;20500;-60
2021/12/23 07:40:04;;;;;;;7.30;6.67;;;19.30;36.00;;;;;;5071188;28;20951;-60
2021/12/23 07:42:32;;;;;;;6.17;5.87;;;19.30;36.00;;;;;;5069951;28;20214;-64
2021/12/23 07:44:58;;;;;;;6.63;6.23;;;19.30;36.00;;;;;;5070830;28;21008;-60
2021/12/23 07:47:23;;;;;;;9.53;6.50;;;19.30;36.80;;;;;;5071626;28;20450;-60
2021/12/23 07:49:49;;;;;;;6.53;6.13;;;19.30;36.00;;;;;;5069696;28;20508;-61
2021/12/23 07:52:15;;;;;;;6.97;6.37;;;19.30;35.90;;;;;;5070786;28;20316;-64
2021/12/23 07:54:41;;;;;;;7.43;6.50;;;19.30;36.10;;;;;;5070733;28;20222;-59
2021/12/23 07:57:06;;;;;;;7.53;6.73;;;19.30;35.90;;;;;;5068955;28;20214;-60
2021/12/23 07:59:33;;;;;;;6.83;6.43;;;19.30;35.80;;;;;;5070895;28;20224;-60
2021/12/23 08:01:59;;;;;;;6.80;6.30;;;19.30;35.80;;;;;;5071133;28;20730;-59
2021/12/23 08:04:25;;;;;;;6.80;6.33;;;19.30;35.80;;;;;;5069519;28;20486;-62
2021/12/23 08:07:02;;;;;;;7.23;6.53;;;19.30;35.70;;;;;;5069559;28;20454;-60
2021/12/23 08:09:28;;;;;;;6.60;6.20;;;19.30;35.80;;;;;;5069080;28;20443;-60
2021/12/23 08:11:54;;;;;;;6.60;6.10;;;19.30;35.80;;;;;;5069796;28;20538;-59
2021/12/23 08:14:20;;;;;;;7.57;6.93;;;19.30;35.70;;;;;;5068482;28;20543;-60
2021/12/23 08:16:46;;;;;;;6.57;6.17;;;19.30;35.70;;;;;;5069764;28;20214;-60
2021/12/23 08:19:12;;;;;;;7.10;6.47;;;19.30;35.70;;;;;;5071766;28;20434;-59
2021/12/23 08:21:38;;;;;;;7.00;6.30;;;19.30;35.70;;;;;;5069493;28;20305;-60
2021/12/23 08:24:06;;;;;;;7.40;6.80;;;19.30;35.80;;;;;;5070138;28;20218;-66
2021/12/23 08:26:39;;;;;;;6.40;6.00;;;19.30;35.80;;;;;;5071235;28;20236;-59
2021/12/23 08:29:06;;;;;;;6.63;6.20;;;19.30;35.80;;;;;;5069733;28;20465;-59
2021/12/23 08:31:32;;;;;;;7.33;6.63;;;19.30;35.80;;;;;;5068661;28;20467;-60
2021/12/23 08:33:58;;;;;;;6.80;6.47;;;19.30;35.80;;;;;;5071145;28;20450;-59
2021/12/23 08:36:24;;;;;;;7.10;6.60;;;19.30;35.80;;;;;;5069149;28;20454;-59
2021/12/23 08:38:49;;;;;;;6.70;6.30;;;19.30;35.80;;;;;;5069656;28;20559;-61
2021/12/23 08:41:15;;;;;;;6.77;6.17;;;19.30;35.70;;;;;;5068051;28;20469;-63
2021/12/23 08:43:41;;;;;;;7.07;6.57;;;19.30;35.70;;;;;;5068301;28;20234;-62
2021/12/23 08:46:07;;;;;;;7.00;6.60;;;19.30;35.80;;;;;;5067942;28;20453;-61
2021/12/23 08:48:32;;;;;;;6.97;6.40;;;19.30;35.70;;;;;;5067285;28;20678;-62
2021/12/23 08:50:58;;;;;;;8.13;6.33;;;19.30;35.70;;;;;;5069747;28;20812;-63
2021/12/23 08:53:24;;;;;;;7.90;7.10;;;19.30;35.70;;;;;;5069910;28;20210;-63
2021/12/23 08:55:49;;;;;;;7.30;6.80;;;19.30;35.60;;;;;;5070469;28;20709;-62
2021/12/23 08:58:15;;;;;;;7.00;6.60;;;19.30;35.50;;;;;;5067985;28;20221;-63
2021/12/23 09:00:40;;;;;;;7.30;6.80;;;19.30;35.50;;;;;;5071122;28;20225;-62
2021/12/23 09:03:08;;;;;;;7.43;6.87;;;19.30;35.40;;;;;;5070024;28;20218;-63
2021/12/23 09:05:36;;;;;;;7.63;7.10;;;19.30;36.20;;;;;;5069153;28;20616;-61
2021/12/23 09:08:02;;;;;;;7.20;6.60;;;19.30;35.50;;;;;;5068169;28;20947;-62
2021/12/23 09:10:28;;;;;;;8.40;7.80;;;19.30;35.50;;;;;;5070126;28;20421;-62
2021/12/23 09:12:54;;;;;;;7.67;6.97;;;19.30;35.60;;;;;;5067436;28;20510;-61
2021/12/23 09:15:20;;;;;;;6.70;6.20;;;19.30;35.50;;;;;;5067267;28;20304;-64
2021/12/23 09:17:46;;;;;;;7.80;7.03;;;19.30;35.60;;;;;;5068391;28;20221;-63
2021/12/23 09:20:14;;;;;;;11.63;7.10;;;19.30;35.50;;;;;;5068236;28;20448;-61
2021/12/23 09:22:41;;;;;;;7.40;6.87;;;19.30;35.60;;;;;;5067935;28;20218;-65
2021/12/23 09:25:11;;;;;;;7.00;6.60;;;19.30;35.60;;;;;;5069541;28;20434;-62
2021/12/23 09:27:55;;;;;;;7.57;6.97;;;19.30;35.70;;;;;;5069319;28;20577;-61
2021/12/23 09:33:06;;;;;;;7.37;6.70;;;19.30;35.60;;;;;;5067472;28;20786;-64
2021/12/23 09:35:32;;;;;;;7.63;7.10;;;19.30;35.60;;;;;;5067982;28;20450;-62
2021/12/23 09:38:00;;;;;;;7.83;6.47;;;19.30;36.50;;;;;;5069749;28;20809;-61
2021/12/23 09:40:29;;;;;;;7.17;6.67;;;19.30;35.70;;;;;;5069470;28;20528;-61
2021/12/23 09:42:58;;;;;;;7.47;6.73;;;19.30;35.70;;;;;;5069212;28;20450;-62
2021/12/23 09:45:24;;;;;;;6.33;5.93;;;19.30;35.70;;;;;;5065911;28;20812;-61
2021/12/23 09:47:50;;;;;;;6.97;6.47;;;19.30;35.70;;;;;;5069311;28;20413;-63
2021/12/23 09:50:19;;;;;;;7.73;6.60;;;19.30;35.70;;;;;;5067329;28;20274;-64
2021/12/23 09:52:48;;;;;;;7.07;6.57;;;19.30;35.80;;;;;;5068912;28;20218;-62
2021/12/23 09:55:18;;;;;;;6.40;6.00;;;19.30;35.70;;;;;;5069172;28;20974;-61
2021/12/23 09:57:47;;;;;;;7.50;7.00;;;19.30;35.70;;;;;;5068896;28;20413;-62
2021/12/23 10:00:14;;;;;;;7.87;7.07;;;19.30;35.80;;;;;;5068252;28;20410;-61
2021/12/23 10:02:42;;;;;;;6.60;6.03;;;19.30;35.80;;;;;;5069268;28;20409;-61
2021/12/23 10:05:11;;;;;;;7.67;7.00;;;19.30;35.80;;;;;;5066338;28;20533;-61
2021/12/23 10:07:38;;;;;;;6.87;6.23;;;19.30;35.80;;;;;;5065429;28;20864;-62
2021/12/23 10:10:11;;;;;;;6.67;6.17;;;19.30;35.70;;;;;;5067836;28;20454;-62
2021/12/23 10:31:44;;;;;;;6.33;5.93;;;19.20;35.70;;;;;;5066382;28;20959;-62
2021/12/23 10:39:48;;;;;;;6.20;5.80;;;19.20;35.70;;;;;;5068753;28;20450;-61
2021/12/23 10:42:24;;;;;;;7.27;6.53;;;19.20;35.70;;;;;;5069327;28;20803;-62
2021/12/23 10:44:59;;;;;;;10.77;9.80;;;19.20;35.70;;;;;;5061648;28;20446;-63
2021/12/23 10:47:58;;;;;;;6.87;6.47;;;19.20;35.70;;;;;;5064642;28;20458;-63
2021/12/23 10:50:39;;;;;;;6.43;6.03;;;19.20;35.60;;;;;;5066419;28;20560;-62
2021/12/23 10:53:25;;;;;;;6.13;5.63;;;19.20;35.60;;;;;;5068403;28;20942;-62
2021/12/23 10:59:21;;;;;;;6.50;6.10;;;19.20;35.60;;;;;;5032163;28;20953;-62
2021/12/23 11:02:10;;;;;;;6.40;6.00;;;19.20;35.60;;;;;;5062348;28;20541;-63
2021/12/23 11:05:02;;;;;;;7.00;6.37;;;19.20;35.60;;;;;;5065187;28;20470;-61
2021/12/23 11:08:07;;;;;;;6.53;5.90;;;19.20;35.70;;;;;;5065585;28;20443;-62
2021/12/23 11:36:05;;;;;;;8.20;6.10;;;19.20;35.70;;;;;;5066221;28;20452;-62
2021/12/23 11:43:57;;;;;;;6.90;6.47;;;19.20;35.70;;;;;;5067667;28;20948;-62
2021/12/23 11:46:30;;;;;;;6.83;6.20;;;19.20;35.70;;;;;;5071504;28;20425;-62
2021/12/23 11:48:57;;;;;;;8.23;6.33;;;19.10;35.70;;;;;;5069690;28;21036;-62
2021/12/23 11:51:45;;;;;;;6.13;5.73;;;19.10;35.70;;;;;;5071153;28;20457;-61
2021/12/23 11:54:13;;;;;;;6.43;5.93;;;19.10;35.60;;;;;;5068737;28;20539;-62
2021/12/23 11:56:58;;;;;;;5.93;5.43;;;19.20;35.80;;;;;;5067931;28;20413;-63
2021/12/23 11:59:25;;;;;;;6.37;5.87;;;19.10;35.60;;;;;;5070438;28;20551;-61
2021/12/23 12:01:53;;;;;;;6.63;5.90;;;19.10;35.60;;;;;;5069607;28;20437;-62
2021/12/23 12:04:31;;;;;;;5.90;5.40;;;19.10;35.60;;;;;;5069391;28;20808;-61
2021/12/23 12:06:58;;;;;;;5.97;5.47;;;19.20;35.70;;;;;;5069684;28;21132;-62
2021/12/23 12:09:30;;;;;;;5.50;5.10;;;19.10;35.60;;;;;;5069287;28;20451;-61
2021/12/23 12:11:59;;;;;;;6.87;6.27;;;19.10;35.60;;;;;;5070479;28;20514;-61
2021/12/23 12:14:36;;;;;;;6.37;5.77;;;19.10;35.60;;;;;;5069706;28;20451;-61
2021/12/23 12:17:23;;;;;;;7.30;6.30;;;19.10;35.60;;;;;;5069436;28;20413;-65
2021/12/23 12:19:59;;;;;;;17.37;7.57;;;19.10;35.50;;;;;;5067565;28;20457;-62
2021/12/23 12:22:43;;;;;;;9.53;8.27;;;19.10;35.60;;;;;;5070442;28;20458;-61
2021/12/23 12:25:09;;;;;;;8.90;8.10;;;19.10;35.60;;;;;;5069444;28;20425;-61
2021/12/23 12:27:35;;;;;;;15.57;8.90;;;19.10;35.60;;;;;;5069891;28;22082;-61
2021/12/23 12:30:10;;;;;;;12.30;9.40;;;19.10;36.30;;;;;;5070561;28;20217;-61
2021/12/23 12:32:36;;;;;;;14.70;10.40;;;19.10;35.50;;;;;;5069284;28;20524;-61
2021/12/23 12:35:13;;;;;;;12.00;9.87;;;19.10;35.50;;;;;;5070947;28;20451;-61
2021/12/23 12:37:43;;;;;;;11.37;9.83;;;19.10;35.50;;;;;;5069261;28;20510;-60
2021/12/23 12:40:09;;;;;;;13.73;10.87;;;19.10;35.50;;;;;;5070660;28;20901;-61
2021/12/23 12:42:39;;;;;;;15.97;10.60;;;19.10;35.40;;;;;;5070204;28;20454;-61
2021/12/23 12:45:12;;;;;;;18.00;11.40;;;19.10;35.40;;;;;;5069390;28;20930;-64
2021/12/23 12:47:48;;;;;;;16.93;10.80;;;19.10;35.30;;;;;;5069899;28;20925;-63
2021/12/23 12:50:20;;;;;;;13.40;10.43;;;19.20;35.50;;;;;;5065217;28;20414;-63
2021/12/23 12:52:48;;;;;;;15.50;11.60;;;19.10;35.40;;;;;;5068970;28;20947;-62
2021/12/23 12:55:22;;;;;;;16.23;10.83;;;19.10;35.40;;;;;;5069347;28;21018;-62
2021/12/23 12:58:01;;;;;;;14.30;11.03;;;19.10;35.40;;;;;;5069220;28;20595;-61
2021/12/23 13:00:36;;;;;;;14.30;9.90;;;19.10;35.40;;;;;;5071094;28;20453;-63
2021/12/23 13:03:22;;;;;;;12.50;10.43;;;19.10;35.40;;;;;;5070140;28;20458;-61
2021/12/23 13:05:53;;;;;;;14.30;10.77;;;19.10;35.40;;;;;;5065039;28;20811;-63
2021/12/23 13:08:32;;;;;;;14.50;10.40;;;19.10;35.40;;;;;;5069138;28;20451;-61
2021/12/23 13:11:22;;;;;;;15.20;10.87;;;19.10;35.40;;;;;;5068182;28;20495;-62
2021/12/23 13:13:59;;;;;;;12.73;10.27;;;19.10;35.50;;;;;;5070246;28;20952;-64
2021/12/23 13:16:25;;;;;;;16.90;10.93;;;19.10;35.40;;;;;;5068448;28;20421;-62
2021/12/23 13:19:20;;;;;;;12.60;9.93;;;19.10;35.40;;;;;;5067154;28;20596;-61
2021/12/23 13:21:52;;;;;;;13.57;10.60;;;19.10;35.40;;;;;;5068935;28;20241;-61
2021/12/23 13:24:21;;;;;;;14.10;10.70;;;19.10;35.40;;;;;;5070161;28;20930;-62
2021/12/23 13:26:47;;;;;;;12.00;10.60;;;19.10;35.40;;;;;;5068555;28;20482;-61
2021/12/23 13:29:13;;;;;;;14.30;10.47;;;19.10;35.40;;;;;;5066633;28;20927;-61
2021/12/23 13:31:40;;;;;;;13.13;10.70;;;19.10;35.30;;;;;;5069868;28;20432;-62
2021/12/23 13:34:21;;;;;;;16.17;11.43;;;19.10;35.30;;;;;;5066313;28;20447;-62
2021/12/23 13:36:50;;;;;;;17.77;11.40;;;19.10;35.30;;;;;;5066598;28;20466;-61
2021/12/23 13:39:23;;;;;;;13.97;10.73;;;19.10;35.30;;;;;;5068564;28;20929;-63
2021/12/23 13:41:55;;;;;;;16.23;10.47;;;19.10;35.30;;;;;;5064536;28;21034;-61
2021/12/23 13:44:29;;;;;;;17.50;11.33;;;19.10;35.30;;;;;;5068645;28;20417;-62
2021/12/23 13:46:57;;;;;;;12.40;10.30;;;19.10;35.30;;;;;;5064698;28;20486;-61
2021/12/23 13:49:49;;;;;;;11.63;10.07;;;19.10;35.30;;;;;;5069113;28;20829;-61
2021/12/23 13:52:22;;;;;;;13.67;11.07;;;19.10;35.20;;;;;;5068323;28;20490;-61
2021/12/23 13:54:52;;;;;;;14.73;10.90;;;19.10;35.30;;;;;;5068955;28;20442;-61
2021/12/23 13:57:20;;;;;;;13.77;10.70;;;19.10;35.20;;;;;;5069158;28;20500;-63
2021/12/23 13:59:48;;;;;;;13.47;10.03;;;19.10;35.30;;;;;;5066869;28;20484;-61